Time;durP1;ratioP1;P1;durP2;ratioP2;P2;SDS_P1;SDS_P2;PMS_P1;PMS_P2;Temp;Humidity;BMP_temperature;BMP_pressure;BME280_temperature;BME280_humidity;BME280_pressure;Samples;Min_cycle;Max_cycle;Signal;HPM_P1;HPM_P2
2022/10/10 00:01:16;;;;;;;9.27;7.07;;;7.70;99.90;;;;;;5061381;28;20123;-61
2022/10/10 00:03:43;;;;;;;9.45;6.97;;;7.70;99.90;;;;;;5068421;28;20477;-61
2022/10/10 00:06:09;;;;;;;9.05;7.18;;;7.70;99.90;;;;;;5061344;28;20450;-61
2022/10/10 00:08:36;;;;;;;8.38;7.25;;;7.60;99.90;;;;;;5071326;28;20048;-62
2022/10/10 00:11:02;;;;;;;13.57;7.65;;;7.70;99.90;;;;;;5068013;28;20918;-62
2022/10/10 00:13:28;;;;;;;10.48;7.75;;;7.60;99.90;;;;;;5055147;28;20048;-62
2022/10/10 00:15:54;;;;;;;11.40;7.63;;;7.70;99.90;;;;;;5055105;28;20055;-62
2022/10/10 00:18:20;;;;;;;9.63;7.28;;;7.60;99.90;;;;;;5065814;28;20050;-61
2022/10/10 00:20:46;;;;;;;14.10;8.07;;;7.60;99.90;;;;;;5068052;28;20068;-61
2022/10/10 00:23:12;;;;;;;8.68;7.15;;;7.60;99.90;;;;;;5066792;28;20432;-61
2022/10/10 00:25:38;;;;;;;11.27;8.13;;;7.60;99.90;;;;;;5061391;28;20487;-61
2022/10/10 00:28:04;;;;;;;9.70;7.45;;;7.60;99.90;;;;;;5065583;28;20056;-61
2022/10/10 00:30:30;;;;;;;11.02;7.70;;;7.60;99.90;;;;;;5065693;28;20052;-61
2022/10/10 00:33:05;;;;;;;9.55;8.20;;;7.60;99.90;;;;;;5067076;28;20131;-61
2022/10/10 00:35:31;;;;;;;9.20;7.70;;;7.60;99.90;;;;;;5043441;28;20105;-61
2022/10/10 00:37:57;;;;;;;9.45;7.57;;;7.50;99.90;;;;;;5059170;28;20070;-61
2022/10/10 00:40:23;;;;;;;9.15;7.53;;;7.50;99.90;;;;;;5068147;28;20048;-61
2022/10/10 00:42:50;;;;;;;10.60;7.78;;;7.50;99.90;;;;;;5066422;28;20060;-61
2022/10/10 00:45:31;;;;;;;12.43;8.18;;;7.50;99.90;;;;;;5049801;28;20056;-60
2022/10/10 00:48:21;;;;;;;10.40;7.07;;;7.50;99.90;;;;;;5068130;28;20059;-61
2022/10/10 00:51:00;;;;;;;10.38;7.30;;;7.50;99.90;;;;;;5072252;28;20044;-61
2022/10/10 00:53:31;;;;;;;8.70;7.40;;;7.50;99.90;;;;;;5038551;28;20045;-61
2022/10/10 00:55:58;;;;;;;13.45;7.78;;;7.50;99.90;;;;;;5061398;28;20057;-61
2022/10/10 00:58:24;;;;;;;8.85;7.50;;;7.50;99.90;;;;;;5066049;28;20052;-61
2022/10/10 01:00:57;;;;;;;11.85;7.65;;;7.50;99.90;;;;;;5061501;28;20559;-61
2022/10/10 01:03:23;;;;;;;10.07;7.40;;;7.50;99.90;;;;;;5062469;28;20056;-61
2022/10/10 01:05:49;;;;;;;10.70;7.93;;;7.50;99.90;;;;;;5067951;28;20769;-61
2022/10/10 01:08:18;;;;;;;9.65;7.75;;;7.60;99.90;;;;;;5070967;28;20044;-61
2022/10/10 01:11:02;;;;;;;9.57;8.15;;;7.60;99.90;;;;;;5069837;28;20151;-61
2022/10/10 01:14:00;;;;;;;11.32;7.70;;;7.60;99.90;;;;;;5030436;28;20056;-61
2022/10/10 01:17:10;;;;;;;10.40;7.78;;;7.60;99.90;;;;;;5046172;28;20062;-61
2022/10/10 01:20:07;;;;;;;8.48;6.43;;;7.70;99.90;;;;;;4977234;28;20421;-60
2022/10/10 01:22:58;;;;;;;12.98;7.88;;;7.70;99.90;;;;;;4977853;28;20798;-60
2022/10/10 01:25:45;;;;;;;11.75;7.28;;;7.80;99.90;;;;;;4947714;28;20421;-60
2022/10/10 01:28:37;;;;;;;9.38;7.07;;;7.80;99.90;;;;;;4946675;28;20559;-61
2022/10/10 01:31:06;;;;;;;11.45;8.13;;;7.80;99.90;;;;;;4979223;28;20094;-61
2022/10/10 01:33:43;;;;;;;11.82;7.47;;;7.90;99.90;;;;;;4963057;28;20402;-60
2022/10/10 01:36:38;;;;;;;8.60;7.53;;;7.90;99.90;;;;;;4965382;28;20098;-61
2022/10/10 01:39:12;;;;;;;12.25;7.63;;;7.90;99.90;;;;;;4896730;29;20462;-61
2022/10/10 01:41:49;;;;;;;11.18;7.10;;;7.90;99.90;;;;;;4900065;29;20412;-62
2022/10/10 01:44:21;;;;;;;11.27;7.30;;;7.90;99.90;;;;;;4892113;29;20546;-61
2022/10/10 01:46:47;;;;;;;13.10;7.90;;;8.00;99.90;;;;;;4891471;29;20056;-61
2022/10/10 01:49:16;;;;;;;9.05;7.50;;;7.90;99.90;;;;;;4896578;29;20075;-60
2022/10/10 01:52:20;;;;;;;11.93;7.70;;;7.90;99.90;;;;;;4892148;29;20055;-61
2022/10/10 01:55:10;;;;;;;12.80;7.25;;;8.00;99.90;;;;;;4898967;29;20049;-60
2022/10/10 01:58:14;;;;;;;8.15;7.22;;;7.90;99.90;;;;;;4950871;28;20063;-60
2022/10/10 02:00:52;;;;;;;10.82;7.78;;;7.90;99.90;;;;;;4966199;28;20066;-61
2022/10/10 02:03:46;;;;;;;11.32;7.53;;;7.90;99.90;;;;;;4974545;28;20050;-60
2022/10/10 02:06:29;;;;;;;10.45;7.40;;;7.90;99.90;;;;;;4963064;28;20186;-60
2022/10/10 02:09:04;;;;;;;12.10;8.02;;;7.90;99.90;;;;;;4971671;28;20051;-62
2022/10/10 02:11:35;;;;;;;10.00;7.88;;;7.90;99.90;;;;;;4969179;28;20171;-61
2022/10/10 02:14:23;;;;;;;13.63;8.07;;;7.90;99.90;;;;;;4963372;28;20050;-61
2022/10/10 02:16:53;;;;;;;12.48;9.63;;;7.90;99.90;;;;;;5038715;28;20059;-61
2022/10/10 02:19:24;;;;;;;11.68;7.68;;;7.90;99.90;;;;;;5042440;28;20450;-59
2022/10/10 02:21:52;;;;;;;8.30;7.07;;;7.90;99.90;;;;;;5045231;28;20060;-61
2022/10/10 02:24:21;;;;;;;11.27;8.02;;;7.90;99.90;;;;;;5040948;28;20450;-60
2022/10/10 02:26:58;;;;;;;12.45;7.72;;;7.90;99.90;;;;;;5048181;28;20052;-61
2022/10/10 02:29:27;;;;;;;11.07;8.00;;;7.90;99.90;;;;;;5043355;28;20049;-61
2022/10/10 02:32:22;;;;;;;11.35;7.38;;;7.90;99.90;;;;;;5049069;28;20048;-60
2022/10/10 02:34:52;;;;;;;9.85;7.75;;;7.90;99.90;;;;;;5042958;28;20149;-61
2022/10/10 02:37:20;;;;;;;10.15;7.57;;;7.80;99.90;;;;;;5045507;28;20381;-60
2022/10/10 02:39:50;;;;;;;9.32;8.27;;;7.80;99.90;;;;;;5049400;28;20389;-60
2022/10/10 02:42:20;;;;;;;8.77;7.22;;;7.80;99.90;;;;;;5053352;28;20087;-60
2022/10/10 02:44:46;;;;;;;13.05;8.30;;;7.80;99.90;;;;;;5043795;28;20446;-61
2022/10/10 02:47:12;;;;;;;13.35;7.72;;;7.80;99.90;;;;;;5051907;28;20582;-61
2022/10/10 02:49:39;;;;;;;13.60;8.05;;;7.70;99.90;;;;;;5041537;28;20415;-61
2022/10/10 02:52:05;;;;;;;10.95;7.97;;;7.70;99.90;;;;;;5043194;28;20049;-62
2022/10/10 02:54:30;;;;;;;12.10;8.13;;;7.70;99.90;;;;;;5042715;28;20052;-60
2022/10/10 02:56:56;;;;;;;11.90;8.18;;;7.70;99.90;;;;;;5041446;28;20879;-60
2022/10/10 02:59:23;;;;;;;11.18;8.55;;;7.70;99.90;;;;;;5031865;28;20114;-61
2022/10/10 03:01:49;;;;;;;13.32;8.40;;;7.70;99.90;;;;;;5053208;28;20165;-60
2022/10/10 03:04:15;;;;;;;9.38;8.35;;;7.70;99.90;;;;;;5062841;28;20068;-60
2022/10/10 03:06:41;;;;;;;11.95;8.35;;;7.70;99.90;;;;;;5049220;28;20072;-61
2022/10/10 03:09:07;;;;;;;9.60;8.32;;;7.60;99.90;;;;;;5055127;28;20041;-61
2022/10/10 03:11:33;;;;;;;12.73;8.60;;;7.60;99.90;;;;;;5051266;28;20052;-61
2022/10/10 03:13:59;;;;;;;14.15;9.15;;;7.60;99.90;;;;;;5070052;28;20110;-61
2022/10/10 03:16:25;;;;;;;9.23;8.25;;;7.70;99.90;;;;;;5061667;28;20076;-60
2022/10/10 03:18:51;;;;;;;12.95;8.73;;;7.60;99.90;;;;;;5062300;28;20127;-60
2022/10/10 03:21:17;;;;;;;9.32;8.05;;;7.70;99.90;;;;;;5061191;28;20102;-60
2022/10/10 03:23:43;;;;;;;10.50;7.97;;;7.60;99.90;;;;;;5068767;28;20052;-61
2022/10/10 03:26:09;;;;;;;11.30;8.25;;;7.60;99.90;;;;;;5067152;28;20059;-60
2022/10/10 03:28:36;;;;;;;11.20;9.25;;;7.60;99.90;;;;;;5050892;28;20048;-61
2022/10/10 03:31:02;;;;;;;12.23;8.65;;;7.60;99.90;;;;;;5049262;28;20106;-61
2022/10/10 03:33:28;;;;;;;10.63;8.13;;;7.60;99.90;;;;;;5060934;28;20051;-60
2022/10/10 03:35:54;;;;;;;12.65;8.63;;;7.50;99.90;;;;;;5066709;28;20052;-61
2022/10/10 03:38:20;;;;;;;12.45;8.55;;;7.50;99.90;;;;;;5059694;28;20136;-61
2022/10/10 03:40:46;;;;;;;11.25;8.60;;;7.50;99.90;;;;;;5061503;28;20045;-60
2022/10/10 03:43:13;;;;;;;10.30;8.15;;;7.50;99.90;;;;;;5062119;28;20045;-60
2022/10/10 03:45:48;;;;;;;10.52;8.52;;;7.50;99.90;;;;;;5048436;28;20052;-60
2022/10/10 03:48:14;;;;;;;15.85;9.65;;;7.40;99.90;;;;;;5069575;28;20054;-60
2022/10/10 03:50:41;;;;;;;11.20;8.48;;;7.40;99.90;;;;;;5050864;28;20052;-60
2022/10/10 03:53:07;;;;;;;11.63;9.35;;;7.30;99.90;;;;;;5067286;28;20040;-60
2022/10/10 03:55:40;;;;;;;14.10;9.23;;;7.30;99.90;;;;;;5043912;28;20063;-61
2022/10/10 03:58:10;;;;;;;12.52;9.32;;;7.30;99.90;;;;;;5037860;28;20091;-60
2022/10/10 04:00:37;;;;;;;13.10;9.38;;;7.20;99.90;;;;;;5061733;28;20054;-59
2022/10/10 04:03:06;;;;;;;11.90;9.38;;;7.20;99.90;;;;;;5063357;28;20110;-61
2022/10/10 04:05:37;;;;;;;10.63;9.52;;;7.20;99.90;;;;;;5073283;28;20048;-60
2022/10/10 04:08:03;;;;;;;11.07;8.60;;;7.20;99.90;;;;;;5067881;28;20055;-61
2022/10/10 04:10:29;;;;;;;13.93;9.55;;;7.20;99.90;;;;;;5072745;28;20054;-61
2022/10/10 04:12:55;;;;;;;9.95;8.65;;;7.10;99.90;;;;;;5069078;28;20419;-61
2022/10/10 04:15:21;;;;;;;10.60;8.68;;;7.10;99.90;;;;;;5062019;28;20079;-60
2022/10/10 04:17:47;;;;;;;11.65;10.00;;;7.10;99.90;;;;;;5062008;28;20048;-60
2022/10/10 04:20:13;;;;;;;11.45;9.90;;;7.10;99.90;;;;;;5062323;28;20056;-60
2022/10/10 04:22:39;;;;;;;13.82;9.70;;;7.10;99.90;;;;;;5065406;28;20068;-60
2022/10/10 04:25:05;;;;;;;13.20;10.68;;;7.00;99.90;;;;;;5060210;28;20048;-61
2022/10/10 04:27:30;;;;;;;11.98;9.45;;;7.00;99.90;;;;;;5062563;28;20108;-60
2022/10/10 04:29:56;;;;;;;13.25;9.95;;;7.00;99.90;;;;;;5069849;28;20915;-60
2022/10/10 04:32:22;;;;;;;15.05;9.98;;;7.00;99.90;;;;;;5047630;28;20052;-61
2022/10/10 04:34:48;;;;;;;11.85;9.60;;;7.00;99.90;;;;;;5062690;28;20114;-60
2022/10/10 04:37:14;;;;;;;10.93;9.23;;;6.90;99.90;;;;;;5066188;28;20056;-61
2022/10/10 04:39:40;;;;;;;13.25;9.85;;;7.00;99.90;;;;;;5054914;28;20106;-63
2022/10/10 04:42:10;;;;;;;14.77;10.18;;;7.00;99.90;;;;;;5082825;28;20097;-60
2022/10/10 04:44:36;;;;;;;12.57;10.57;;;7.00;99.90;;;;;;5082639;28;20048;-60
2022/10/10 04:47:02;;;;;;;13.05;8.80;;;7.00;99.90;;;;;;5081108;28;20043;-60
2022/10/10 04:49:28;;;;;;;15.10;9.80;;;7.00;99.90;;;;;;5081735;28;20495;-60
2022/10/10 04:51:54;;;;;;;12.40;9.30;;;7.00;99.90;;;;;;5081440;28;20048;-61
2022/10/10 04:54:20;;;;;;;12.90;9.52;;;7.00;99.90;;;;;;5081617;28;20109;-60
2022/10/10 04:56:46;;;;;;;10.43;9.40;;;7.00;99.90;;;;;;5062803;28;20056;-60
2022/10/10 04:59:12;;;;;;;14.23;9.95;;;7.10;99.90;;;;;;5063252;28;20059;-60
2022/10/10 05:01:38;;;;;;;12.35;9.90;;;7.00;99.90;;;;;;5049215;28;20064;-60
2022/10/10 05:04:04;;;;;;;14.02;9.63;;;7.00;99.90;;;;;;5047670;28;20064;-61
2022/10/10 05:06:30;;;;;;;12.05;9.50;;;7.10;99.90;;;;;;5035011;28;20088;-61
2022/10/10 05:08:56;;;;;;;12.25;9.90;;;7.00;99.90;;;;;;5040079;28;20049;-60
2022/10/10 05:11:22;;;;;;;13.80;9.35;;;7.10;99.90;;;;;;5041286;28;20056;-61
2022/10/10 05:13:51;;;;;;;12.77;9.82;;;7.10;99.90;;;;;;5046425;28;20060;-60
2022/10/10 05:16:17;;;;;;;12.13;9.27;;;7.10;99.90;;;;;;5047525;28;20056;-60
2022/10/10 05:18:44;;;;;;;16.10;9.68;;;7.10;99.90;;;;;;5033105;28;20056;-60
2022/10/10 05:21:10;;;;;;;12.82;9.50;;;7.10;99.90;;;;;;5034285;28;20049;-60
2022/10/10 05:23:37;;;;;;;10.23;9.15;;;7.10;99.90;;;;;;5040374;28;20152;-60
2022/10/10 05:26:03;;;;;;;12.05;9.30;;;7.10;99.90;;;;;;5040376;28;20553;-60
2022/10/10 05:28:30;;;;;;;16.52;10.27;;;7.10;99.90;;;;;;5038906;28;20045;-61
2022/10/10 05:30:55;;;;;;;13.77;9.43;;;7.10;99.90;;;;;;5049445;28;20549;-60
2022/10/10 05:33:22;;;;;;;12.85;9.95;;;7.10;99.90;;;;;;5049322;28;20057;-60
2022/10/10 05:35:47;;;;;;;14.18;9.38;;;7.10;99.90;;;;;;5041386;28;20095;-60
2022/10/10 05:38:14;;;;;;;13.07;9.70;;;7.10;99.90;;;;;;5042756;28;20093;-60
2022/10/10 05:40:41;;;;;;;12.80;10.27;;;7.10;99.90;;;;;;5041985;28;20459;-60
2022/10/10 05:43:07;;;;;;;15.27;9.95;;;7.10;99.90;;;;;;5019824;28;22011;-60
2022/10/10 05:45:33;;;;;;;11.90;10.10;;;7.10;99.90;;;;;;5047687;28;20052;-61
2022/10/10 05:48:00;;;;;;;10.48;9.10;;;7.10;99.90;;;;;;5040503;28;20049;-61
2022/10/10 05:50:33;;;;;;;16.45;9.73;;;7.20;99.90;;;;;;5040270;28;20087;-61
2022/10/10 05:52:59;;;;;;;12.15;9.48;;;7.20;99.90;;;;;;5033870;28;20594;-61
2022/10/10 05:55:25;;;;;;;15.02;9.60;;;7.20;99.90;;;;;;5046680;28;20086;-60
2022/10/10 05:57:51;;;;;;;12.68;9.35;;;7.20;99.90;;;;;;5042379;28;20052;-61
2022/10/10 06:00:17;;;;;;;13.88;10.13;;;7.20;99.90;;;;;;5049839;28;20169;-61
2022/10/10 06:02:43;;;;;;;12.48;9.40;;;7.20;99.90;;;;;;5063464;28;20053;-61
2022/10/10 06:05:09;;;;;;;12.07;8.98;;;7.20;99.90;;;;;;5076811;28;20076;-60
2022/10/10 06:07:36;;;;;;;14.88;9.95;;;7.20;99.90;;;;;;5072798;28;20052;-60
2022/10/10 06:10:03;;;;;;;13.95;10.23;;;7.30;99.90;;;;;;5064769;28;20052;-60
2022/10/10 06:12:30;;;;;;;13.27;10.07;;;7.30;99.90;;;;;;5071801;28;20064;-62
2022/10/10 06:14:56;;;;;;;11.18;10.02;;;7.30;99.90;;;;;;5064444;28;20097;-60
2022/10/10 06:17:22;;;;;;;11.13;9.02;;;7.40;99.90;;;;;;5064505;28;20080;-60
2022/10/10 06:19:48;;;;;;;13.52;10.27;;;7.40;99.90;;;;;;5063976;28;20048;-60
2022/10/10 06:22:15;;;;;;;12.88;9.80;;;7.50;99.90;;;;;;5045351;28;20059;-61
2022/10/10 06:24:41;;;;;;;14.70;10.50;;;7.50;99.90;;;;;;5038320;28;20048;-61
2022/10/10 06:27:07;;;;;;;13.70;10.27;;;7.60;99.90;;;;;;5068626;28;20047;-61
2022/10/10 06:29:33;;;;;;;11.15;10.00;;;7.70;99.90;;;;;;5068001;28;20127;-60
2022/10/10 06:32:00;;;;;;;13.40;10.23;;;7.80;99.90;;;;;;5061073;28;20108;-59
2022/10/10 06:34:26;;;;;;;12.23;10.20;;;8.00;99.90;;;;;;5069402;28;20066;-60
2022/10/10 06:36:52;;;;;;;12.30;9.52;;;8.30;99.90;;;;;;5059460;28;20056;-60
2022/10/10 06:39:18;;;;;;;14.63;9.73;;;8.60;99.90;;;;;;5069144;28;20052;-61
2022/10/10 06:41:44;;;;;;;13.82;9.82;;;8.90;99.90;;;;;;5055136;28;20053;-60
2022/10/10 06:44:10;;;;;;;14.02;8.70;;;9.10;99.90;;;;;;5044468;28;20346;-60
2022/10/10 06:46:36;;;;;;;10.75;8.65;;;9.30;99.90;;;;;;5062695;28;20384;-60
2022/10/10 06:49:03;;;;;;;9.70;8.23;;;9.50;99.90;;;;;;5068691;28;20102;-60
2022/10/10 06:51:30;;;;;;;11.07;8.93;;;9.60;99.90;;;;;;5055262;28;20404;-59
2022/10/10 06:53:57;;;;;;;13.05;8.25;;;9.60;99.90;;;;;;5071714;28;20051;-60
2022/10/10 06:56:23;;;;;;;10.75;8.55;;;9.60;99.90;;;;;;5055611;28;20040;-60
2022/10/10 06:58:50;;;;;;;11.80;8.43;;;9.40;99.90;;;;;;5069265;28;20127;-60
2022/10/10 07:01:20;;;;;;;9.43;8.45;;;9.30;99.90;;;;;;5068323;28;20568;-60
2022/10/10 07:03:46;;;;;;;12.15;8.80;;;9.20;99.90;;;;;;5062928;28;20090;-60
2022/10/10 07:06:13;;;;;;;11.88;9.68;;;9.20;99.90;;;;;;5068947;28;20048;-61
2022/10/10 07:08:41;;;;;;;14.20;9.30;;;9.10;99.90;;;;;;5068976;28;20808;-60
2022/10/10 07:11:08;;;;;;;12.55;9.38;;;9.10;99.90;;;;;;5070064;28;20057;-60
2022/10/10 07:13:35;;;;;;;12.93;9.75;;;9.10;99.90;;;;;;5055953;28;20066;-61
2022/10/10 07:16:02;;;;;;;11.82;9.15;;;9.10;99.90;;;;;;5057853;28;20076;-60
2022/10/10 07:18:28;;;;;;;14.25;9.70;;;9.20;99.90;;;;;;5041940;28;20048;-60
2022/10/10 07:21:01;;;;;;;11.23;9.50;;;9.30;99.90;;;;;;5045960;28;20056;-60
2022/10/10 07:23:27;;;;;;;;;;;9.50;99.90;;;;;;5066647;28;20055;-60
2022/10/10 07:26:05;;;;;;;12.55;8.88;;;9.60;99.90;;;;;;5062546;28;19924;-60
2022/10/10 07:28:31;;;;;;;13.95;8.90;;;9.70;99.90;;;;;;5062828;28;20467;-61
2022/10/10 07:31:03;;;;;;;9.82;8.50;;;9.90;99.90;;;;;;5062522;28;20131;-60
2022/10/10 07:33:35;;;;;;;11.70;9.90;;;10.00;99.90;;;;;;5062318;28;20055;-61
2022/10/10 07:36:01;;;;;;;13.90;8.57;;;10.10;99.90;;;;;;5061859;28;20468;-61
2022/10/10 07:38:27;;;;;;;13.85;8.63;;;10.30;99.90;;;;;;5062523;28;20127;-61
2022/10/10 07:40:53;;;;;;;10.43;9.30;;;10.30;99.90;;;;;;5062906;28;20868;-61
2022/10/10 07:43:19;;;;;;;13.00;8.98;;;10.40;99.90;;;;;;5062747;28;20040;-60
2022/10/10 07:45:45;;;;;;;11.95;9.50;;;10.40;99.90;;;;;;5061818;28;20093;-61
2022/10/10 07:48:11;;;;;;;13.88;9.10;;;10.40;99.90;;;;;;5061400;28;20053;-61
2022/10/10 07:50:41;;;;;;;10.57;9.23;;;10.50;99.90;;;;;;5062119;28;20052;-60
2022/10/10 07:53:08;;;;;;;10.63;8.63;;;10.80;99.90;;;;;;5061901;28;20056;-60
2022/10/10 07:55:33;;;;;;;10.63;8.48;;;11.10;99.90;;;;;;5061124;28;20495;-61
2022/10/10 07:58:02;;;;;;;10.88;8.88;;;11.30;99.90;;;;;;5061493;28;20051;-61
2022/10/10 08:00:32;;;;;;;10.55;8.65;;;11.30;99.90;;;;;;5061916;28;20048;-61
2022/10/10 08:02:58;;;;;;;15.20;8.80;;;11.40;99.90;;;;;;5061874;28;20770;-61
2022/10/10 08:05:24;;;;;;;11.05;9.50;;;11.40;99.90;;;;;;5061227;28;20044;-61
2022/10/10 08:07:49;;;;;;;12.65;8.93;;;11.40;99.90;;;;;;5061384;28;20083;-61
2022/10/10 08:10:15;;;;;;;11.60;9.23;;;11.40;99.90;;;;;;5068498;28;20450;-61
2022/10/10 08:12:41;;;;;;;10.93;8.98;;;11.50;99.90;;;;;;5061853;28;20048;-61
2022/10/10 08:15:08;;;;;;;10.35;9.20;;;11.50;99.90;;;;;;5061575;28;20044;-61
2022/10/10 08:17:34;;;;;;;15.38;9.38;;;11.50;99.90;;;;;;5037338;28;20051;-61
2022/10/10 08:20:00;;;;;;;12.13;9.63;;;11.50;99.90;;;;;;5060866;28;20067;-62
2022/10/10 08:22:26;;;;;;;11.65;9.30;;;11.60;99.90;;;;;;5055863;28;20403;-61
2022/10/10 08:24:52;;;;;;;15.38;9.18;;;11.50;99.90;;;;;;5068109;28;20044;-61
2022/10/10 08:27:18;;;;;;;14.38;10.13;;;11.50;99.90;;;;;;5049350;28;20146;-61
2022/10/10 08:29:47;;;;;;;10.73;8.90;;;11.60;99.90;;;;;;5071031;28;20948;-60
2022/10/10 08:32:13;;;;;;;14.23;10.15;;;11.70;99.90;;;;;;5061330;28;20052;-61
2022/10/10 08:34:39;;;;;;;11.65;9.75;;;11.80;99.90;;;;;;5061397;28;20056;-61
2022/10/10 08:37:05;;;;;;;12.57;10.65;;;11.90;99.90;;;;;;5059937;28;20177;-61
2022/10/10 08:39:31;;;;;;;13.52;9.65;;;11.90;99.90;;;;;;5046834;28;20144;-62
2022/10/10 08:41:59;;;;;;;12.10;9.23;;;12.00;99.90;;;;;;5043755;28;20090;-61
2022/10/10 08:44:51;;;;;;;16.40;11.35;;;12.00;99.90;;;;;;5053362;28;20600;-60
2022/10/10 08:47:52;;;;;;;20.42;11.55;;;12.20;99.90;;;;;;5065733;28;20943;-61
2022/10/10 08:50:33;;;;;;;14.15;10.75;;;12.30;99.90;;;;;;5059824;28;20052;-60
2022/10/10 08:53:19;;;;;;;14.50;11.07;;;12.30;99.90;;;;;;5062122;28;20159;-60
2022/10/10 08:55:45;;;;;;;15.20;10.25;;;12.30;99.90;;;;;;5060157;28;20692;-61
2022/10/10 08:58:23;;;;;;;15.32;10.52;;;12.40;99.90;;;;;;5044200;28;20052;-61
2022/10/10 09:01:17;;;;;;;13.82;10.75;;;12.30;99.90;;;;;;5065792;28;20044;-61
2022/10/10 09:03:55;;;;;;;15.18;10.95;;;12.30;99.90;;;;;;5067648;28;20487;-64
2022/10/10 09:06:43;;;;;;;13.52;10.98;;;12.40;99.90;;;;;;5066936;28;20044;-61
2022/10/10 09:09:30;;;;;;;13.68;10.80;;;12.60;99.90;;;;;;5061374;28;20055;-61
2022/10/10 09:12:26;;;;;;;13.98;10.55;;;12.60;99.90;;;;;;5042535;28;20099;-61
2022/10/10 09:15:32;;;;;;;16.23;11.85;;;12.60;99.90;;;;;;5061718;28;20087;-61
2022/10/10 09:18:20;;;;;;;21.05;11.38;;;12.70;99.90;;;;;;5051882;28;20044;-61
2022/10/10 09:21:04;;;;;;;15.90;11.80;;;12.70;99.90;;;;;;5055070;28;20056;-61
2022/10/10 09:23:39;;;;;;;17.02;11.63;;;12.70;99.90;;;;;;5066150;28;20816;-62
2022/10/10 09:26:12;;;;;;;16.80;12.40;;;12.80;99.90;;;;;;5060587;28;20057;-61
2022/10/10 09:28:50;;;;;;;15.18;11.75;;;12.80;99.90;;;;;;5065734;28;20052;-61
2022/10/10 09:31:43;;;;;;;13.00;11.02;;;12.90;99.90;;;;;;5060218;28;20914;-62
2022/10/10 09:34:22;;;;;;;18.90;11.05;;;13.00;99.90;;;;;;5072271;28;20053;-62
2022/10/10 09:36:49;;;;;;;15.77;11.88;;;13.10;99.90;;;;;;5063910;28;20095;-62
2022/10/10 09:39:43;;;;;;;15.60;11.00;;;13.10;99.90;;;;;;5070030;28;20051;-62
2022/10/10 09:42:12;;;;;;;14.48;10.32;;;13.10;99.90;;;;;;5068110;28;20054;-62
2022/10/10 09:44:43;;;;;;;16.15;11.60;;;13.10;99.90;;;;;;5066910;28;20760;-61
2022/10/10 09:47:15;;;;;;;15.98;11.23;;;13.10;99.90;;;;;;5068017;28;20537;-61
2022/10/10 09:49:44;;;;;;;16.10;10.97;;;13.10;99.90;;;;;;5048142;28;20048;-62
2022/10/10 09:52:26;;;;;;;14.57;11.48;;;13.20;99.90;;;;;;5058988;28;20079;-61
2022/10/10 09:55:17;;;;;;;17.38;11.25;;;13.30;99.90;;;;;;5057379;28;20051;-62
2022/10/10 09:57:44;;;;;;;14.10;11.93;;;13.50;99.90;;;;;;5064478;28;20056;-62
2022/10/10 10:00:18;;;;;;;15.93;11.40;;;13.70;99.90;;;;;;5070808;28;20873;-62
2022/10/10 10:03:01;;;;;;;15.77;10.65;;;13.90;99.90;;;;;;5057411;28;20080;-62
2022/10/10 10:05:28;;;;;;;14.43;10.60;;;14.00;99.90;;;;;;5063816;28;20048;-62
2022/10/10 10:07:55;;;;;;;14.18;10.80;;;14.10;99.90;;;;;;5065656;28;20071;-62
2022/10/10 10:10:25;;;;;;;13.75;10.75;;;14.20;99.90;;;;;;5062000;28;20156;-62
2022/10/10 10:12:52;;;;;;;12.98;10.88;;;14.30;99.90;;;;;;5056388;28;20566;-62
2022/10/10 10:15:24;;;;;;;14.57;11.65;;;14.40;99.90;;;;;;5044787;28;20056;-62
2022/10/10 10:18:20;;;;;;;15.68;11.38;;;14.30;99.90;;;;;;5038954;28;20166;-61
2022/10/10 10:20:51;;;;;;;15.88;10.50;;;14.30;99.90;;;;;;5057875;28;20090;-62
2022/10/10 10:23:31;;;;;;;13.90;10.43;;;14.30;99.90;;;;;;5045076;28;20127;-62
2022/10/10 10:26:02;;;;;;;16.20;11.30;;;14.40;99.90;;;;;;5063484;28;20109;-62
2022/10/10 10:28:29;;;;;;;12.63;10.48;;;14.40;99.90;;;;;;5064108;28;20044;-62
2022/10/10 10:30:57;;;;;;;14.65;10.52;;;14.40;99.90;;;;;;5071268;28;20079;-62
2022/10/10 10:33:41;;;;;;;12.70;11.00;;;14.40;99.90;;;;;;5065653;28;20611;-62
2022/10/10 10:36:42;;;;;;;15.98;10.98;;;14.30;99.90;;;;;;5071243;28;20399;-62
2022/10/10 10:39:19;;;;;;;14.15;10.75;;;14.30;99.90;;;;;;5064356;28;20461;-62
2022/10/10 10:42:26;;;;;;;12.43;10.88;;;14.20;99.90;;;;;;5063580;28;20060;-62
2022/10/10 10:45:29;;;;;;;12.95;10.45;;;14.00;99.90;;;;;;4980301;28;20152;-62
2022/10/10 10:48:13;;;;;;;12.95;10.27;;;13.90;99.90;;;;;;4981066;28;20058;-62
2022/10/10 10:51:02;;;;;;;16.33;10.98;;;13.80;99.90;;;;;;4982878;28;20246;-62
2022/10/10 10:53:54;;;;;;;14.70;12.07;;;13.70;99.90;;;;;;4988948;28;20132;-63
2022/10/10 10:56:34;;;;;;;13.15;10.88;;;13.60;99.90;;;;;;4985404;28;20571;-62
2022/10/10 10:59:14;;;;;;;15.88;11.55;;;13.60;99.90;;;;;;4977490;28;20046;-62
2022/10/10 11:01:45;;;;;;;20.33;11.88;;;13.50;99.90;;;;;;4980333;28;20062;-62
2022/10/10 11:04:51;;;;;;;13.75;11.75;;;13.50;99.90;;;;;;4964040;28;20054;-62
2022/10/10 11:07:22;;;;;;;17.42;11.68;;;13.50;99.90;;;;;;4969718;28;20091;-62
2022/10/10 11:10:06;;;;;;;16.15;10.13;;;13.50;99.90;;;;;;4990698;28;20096;-62
2022/10/10 11:12:59;;;;;;;14.48;10.60;;;13.50;99.90;;;;;;4948096;28;20497;-62
2022/10/10 11:15:31;;;;;;;17.27;11.40;;;13.40;99.90;;;;;;4993941;28;20046;-62
2022/10/10 11:18:13;;;;;;;17.98;10.52;;;13.40;99.90;;;;;;4982041;28;20057;-62
2022/10/10 11:21:02;;;;;;;14.73;12.23;;;13.40;99.90;;;;;;4985774;28;20093;-62
2022/10/10 11:23:31;;;;;;;14.48;11.70;;;13.40;99.90;;;;;;5066111;28;20060;-62
2022/10/10 11:26:24;;;;;;;15.85;12.68;;;13.50;99.90;;;;;;5047394;28;20048;-61
2022/10/10 11:29:04;;;;;;;21.80;13.30;;;13.50;99.90;;;;;;5058769;28;20529;-62
2022/10/10 11:32:06;;;;;;;19.05;13.32;;;13.50;99.90;;;;;;5061077;28;20528;-61
2022/10/10 11:35:09;;;;;;;18.17;12.65;;;13.50;99.90;;;;;;4999228;28;20939;-62
2022/10/10 11:37:45;;;;;;;19.33;13.30;;;13.40;99.90;;;;;;4939628;28;20067;-61
2022/10/10 11:40:33;;;;;;;21.17;13.75;;;13.40;99.90;;;;;;4931923;28;20086;-62
2022/10/10 11:43:06;;;;;;;17.98;13.90;;;13.40;99.90;;;;;;4937106;28;20928;-62
2022/10/10 11:45:44;;;;;;;17.70;14.05;;;13.40;99.90;;;;;;4933695;28;20171;-62
2022/10/10 11:48:36;;;;;;;18.15;14.38;;;13.40;99.90;;;;;;4934933;28;20089;-61
2022/10/10 11:51:27;;;;;;;23.00;14.30;;;13.50;99.90;;;;;;4930079;28;20091;-62
2022/10/10 11:53:59;;;;;;;21.10;14.93;;;13.60;99.90;;;;;;4932996;28;20054;-61
2022/10/10 11:56:45;;;;;;;18.35;14.52;;;13.50;99.90;;;;;;4916539;29;20943;-62
2022/10/10 11:59:31;;;;;;;21.42;13.75;;;13.50;99.90;;;;;;4941761;28;20082;-62
2022/10/10 12:02:01;;;;;;;18.65;14.55;;;13.50;99.90;;;;;;4941450;28;20600;-61
2022/10/10 12:04:36;;;;;;;17.67;14.10;;;13.50;99.90;;;;;;4940871;28;20121;-61
2022/10/10 12:07:19;;;;;;;23.33;16.13;;;13.50;99.90;;;;;;4929515;28;20133;-61
2022/10/10 12:10:08;;;;;;;21.05;15.55;;;13.50;99.90;;;;;;4952509;28;20066;-62
2022/10/10 12:12:43;;;;;;;21.02;16.98;;;13.60;99.90;;;;;;4980463;28;20046;-61
2022/10/10 12:15:33;;;;;;;21.55;16.48;;;13.50;99.90;;;;;;5052825;28;20063;-61
2022/10/10 12:18:00;;;;;;;23.45;15.50;;;13.60;99.90;;;;;;5060276;28;20052;-60
2022/10/10 12:20:26;;;;;;;20.77;16.55;;;13.50;99.90;;;;;;5065738;28;20125;-61
2022/10/10 12:23:13;;;;;;;19.67;15.63;;;13.50;99.90;;;;;;5068139;28;20052;-61
2022/10/10 12:25:41;;;;;;;24.05;16.52;;;13.60;99.90;;;;;;5059472;28;20867;-61
2022/10/10 12:28:13;;;;;;;22.83;16.10;;;13.50;99.90;;;;;;5047727;28;20044;-60
2022/10/10 12:30:53;;;;;;;22.77;16.15;;;13.60;99.90;;;;;;5055071;28;20058;-60
2022/10/10 12:33:25;;;;;;;21.10;15.88;;;13.60;99.90;;;;;;5067204;28;20059;-61
2022/10/10 12:35:53;;;;;;;22.48;16.77;;;13.60;99.90;;;;;;5060571;28;20052;-60
2022/10/10 12:38:24;;;;;;;26.17;16.67;;;13.50;99.90;;;;;;5058957;28;20060;-61
2022/10/10 12:40:56;;;;;;;25.83;17.27;;;13.50;99.90;;;;;;5060384;28;20816;-61
2022/10/10 12:43:44;;;;;;;22.58;16.40;;;13.40;99.90;;;;;;5061076;28;20055;-60
2022/10/10 12:46:16;;;;;;;21.17;17.63;;;13.40;99.90;;;;;;5059888;28;20113;-60
2022/10/10 12:48:42;;;;;;;24.05;17.80;;;13.40;99.90;;;;;;5060221;28;20091;-61
2022/10/10 12:51:19;;;;;;;22.95;17.83;;;13.40;99.90;;;;;;5060996;28;20147;-61
2022/10/10 12:53:51;;;;;;;25.63;18.13;;;13.50;99.90;;;;;;5061176;28;20044;-61
2022/10/10 12:56:40;;;;;;;26.48;18.58;;;13.40;99.90;;;;;;5061566;28;20048;-60
2022/10/10 12:59:20;;;;;;;28.52;18.58;;;13.50;99.90;;;;;;5043819;28;20052;-60
2022/10/10 13:02:00;;;;;;;26.50;17.95;;;13.40;99.90;;;;;;5043459;28;20521;-61
2022/10/10 13:04:27;;;;;;;23.67;19.17;;;13.40;99.90;;;;;;5061151;28;20048;-60
2022/10/10 13:06:57;;;;;;;25.20;18.75;;;13.40;99.90;;;;;;5060926;28;20051;-60
2022/10/10 13:09:31;;;;;;;23.85;18.70;;;13.40;99.90;;;;;;5047616;28;20048;-59